Time;durP1;ratioP1;P1;durP2;ratioP2;P2;SDS_P1;SDS_P2;PMS_P1;PMS_P2;Temp;Humidity;BMP_temperature;BMP_pressure;BME280_temperature;BME280_humidity;BME280_pressure;Samples;Min_cycle;Max_cycle;Signal;HPM_P1;HPM_P2
2021/12/14 00:01:53;;;;;;;12.27;6.27;;;;;;;1.90;100.00;97198.56;5116461;28;20984;-37
2021/12/14 00:04:24;;;;;;;10.60;6.63;;;;;;;1.82;100.00;97198.59;5116785;28;20848;-37
2021/12/14 00:06:52;;;;;;;11.50;6.40;;;;;;;1.84;100.00;97200.03;5116648;28;20509;-37
2021/12/14 00:09:26;;;;;;;10.90;7.00;;;;;;;1.86;100.00;97201.69;5116255;28;20449;-37
2021/12/14 00:12:11;;;;;;;10.80;5.80;;;;;;;1.75;100.00;97184.56;5116287;28;20473;-37
2021/12/14 00:17:27;;;;;;;9.63;5.20;;;;;;;1.81;100.00;97199.59;5116363;28;20410;-37
2021/12/14 00:19:57;;;;;;;9.63;6.23;;;;;;;1.85;100.00;97211.38;5116471;28;20797;-37
2021/12/14 00:22:33;;;;;;;14.93;7.50;;;;;;;1.83;100.00;97214.13;5116091;28;20792;-37
2021/12/14 00:25:00;;;;;;;8.27;5.00;;;;;;;1.87;100.00;97209.34;5116118;28;20423;-37
2021/12/14 00:27:30;;;;;;;6.67;5.17;;;;;;;1.90;100.00;97208.22;5116359;28;20815;-37
2021/12/14 00:30:01;;;;;;;7.57;4.93;;;;;;;1.91;100.00;97210.66;5116184;28;20465;-37
2021/12/14 00:32:33;;;;;;;11.47;6.23;;;;;;;1.92;100.00;97217.53;5115917;28;20492;-37
2021/12/14 00:35:03;;;;;;;10.33;6.20;;;;;;;1.87;100.00;97204.13;5115846;28;20433;-37
2021/12/14 00:37:33;;;;;;;8.00;5.70;;;;;;;1.94;100.00;97215.56;5115573;28;20975;-37
2021/12/14 00:40:05;;;;;;;9.90;6.00;;;;;;;1.96;100.00;97218.03;5115649;28;20452;-37
2021/12/14 00:42:34;;;;;;;18.17;8.30;;;;;;;1.96;100.00;97223.25;5115688;28;20419;-37
2021/12/14 00:45:01;;;;;;;11.20;6.20;;;;;;;1.92;100.00;97224.59;5115532;28;20445;-37
2021/12/14 00:47:29;;;;;;;15.60;8.07;;;;;;;1.93;100.00;97223.59;5115882;28;20913;-37
2021/12/14 00:49:56;;;;;;;11.10;6.40;;;;;;;1.91;100.00;97221.13;5115829;28;20488;-37
2021/12/14 00:52:23;;;;;;;11.30;6.73;;;;;;;1.78;100.00;97207.78;5115494;28;20433;-37
2021/12/14 00:54:51;;;;;;;8.13;5.97;;;;;;;1.90;100.00;97224.75;5115429;28;20932;-37
2021/12/14 00:57:19;;;;;;;11.77;6.40;;;;;;;1.89;100.00;97228.34;5115687;28;20448;-37
2021/12/14 00:59:47;;;;;;;8.37;5.53;;;;;;;1.89;100.00;97227.53;5115329;28;20532;-37
2021/12/14 01:02:18;;;;;;;7.83;5.90;;;;;;;1.90;100.00;97232.59;5115170;28;20984;-37
2021/12/14 01:04:47;;;;;;;9.30;5.50;;;;;;;1.93;100.00;97232.25;5115227;28;20781;-37
2021/12/14 01:07:18;;;;;;;9.50;6.80;;;;;;;1.94;100.00;97225.22;5115466;28;20505;-37
2021/12/14 01:09:52;;;;;;;7.00;4.93;;;;;;;1.95;100.00;97229.47;5115193;28;20974;-37
2021/12/14 01:12:33;;;;;;;13.27;6.93;;;;;;;1.96;100.00;97231.13;5115394;28;20830;-38
2021/12/14 01:15:24;;;;;;;9.27;5.63;;;;;;;1.96;100.00;97231.94;5115042;28;20525;-37
2021/12/14 01:18:02;;;;;;;10.27;5.40;;;;;;;1.99;100.00;97228.94;5115038;28;20922;-37
2021/12/14 01:20:38;;;;;;;7.67;6.23;;;;;;;2.00;100.00;97235.84;5114870;28;20523;-37
2021/12/14 01:23:15;;;;;;;11.43;7.27;;;;;;;1.99;100.00;97228.13;5114922;28;20837;-37
2021/12/14 01:25:50;;;;;;;6.90;5.00;;;;;;;1.97;100.00;97230.13;5114849;28;20437;-37
2021/12/14 01:28:20;;;;;;;8.93;5.90;;;;;;;1.94;100.00;97227.84;5114898;28;20433;-37
2021/12/14 01:31:00;;;;;;;15.20;7.00;;;;;;;1.87;100.00;97219.84;5115046;28;20426;-37
2021/12/14 01:33:28;;;;;;;12.87;7.47;;;;;;;1.88;100.00;97226.72;5114737;28;20521;-37
2021/12/14 01:35:57;;;;;;;11.60;5.70;;;;;;;1.84;100.00;97217.56;5114672;28;20488;-37
2021/12/14 01:38:35;;;;;;;8.83;5.40;;;;;;;1.82;100.00;97227.41;5114978;28;20450;-37
2021/12/14 01:41:10;;;;;;;8.90;5.43;;;;;;;1.76;100.00;97228.06;5115381;28;20474;-37
2021/12/14 01:43:42;;;;;;;8.57;5.57;;;;;;;1.72;100.00;97222.38;5114953;28;20429;-37
2021/12/14 01:46:19;;;;;;;10.10;6.00;;;;;;;1.76;100.00;97222.84;5114558;28;20841;-37
2021/12/14 01:48:47;;;;;;;10.27;6.20;;;;;;;1.78;100.00;97215.63;5114554;28;20923;-37
2021/12/14 01:51:15;;;;;;;6.00;5.23;;;;;;;1.81;100.00;97225.78;5115251;28;20442;-37
2021/12/14 01:53:45;;;;;;;13.20;6.90;;;;;;;1.84;100.00;97220.19;5114688;28;20442;-37
2021/12/14 01:56:14;;;;;;;10.77;5.97;;;;;;;1.86;100.00;97218.22;5114090;28;20925;-37
2021/12/14 01:58:45;;;;;;;7.90;6.23;;;;;;;1.86;100.00;97222.66;5114141;28;20434;-37
2021/12/14 02:01:20;;;;;;;13.90;8.00;;;;;;;1.86;100.00;97223.44;5114104;28;20472;-37
2021/12/14 02:03:50;;;;;;;10.00;6.20;;;;;;;1.74;100.00;97206.47;5114236;28;20434;-37
2021/12/14 02:06:22;;;;;;;8.90;7.90;;;;;;;1.90;100.00;97229.97;5114166;28;20427;-37
2021/12/14 02:08:56;;;;;;;11.50;7.07;;;;;;;1.92;100.00;97222.78;5114200;28;20426;-37
2021/12/14 02:11:25;;;;;;;12.40;6.27;;;;;;;1.93;100.00;97224.38;5114177;28;20430;-37
2021/12/14 02:13:55;;;;;;;16.10;8.47;;;;;;;1.97;100.00;97225.69;5114099;28;20441;-37
2021/12/14 02:16:25;;;;;;;14.33;8.63;;;;;;;1.97;100.00;97220.44;5113937;28;20921;-37
2021/12/14 02:18:57;;;;;;;13.17;8.97;;;;;;;1.97;100.00;97215.22;5113935;28;20438;-37
2021/12/14 02:21:27;;;;;;;10.77;7.50;;;;;;;1.98;100.00;97219.47;5114143;28;20984;-37
2021/12/14 02:23:56;;;;;;;15.97;7.17;;;;;;;1.82;100.00;97198.59;5114182;28;20453;-37
2021/12/14 02:26:26;;;;;;;8.67;6.10;;;;;;;1.94;100.00;97210.31;5113877;28;20441;-37
2021/12/14 02:28:54;;;;;;;9.47;5.67;;;;;;;1.94;100.00;97214.75;5113911;28;20542;-37
2021/12/14 02:31:24;;;;;;;12.07;6.40;;;;;;;1.93;100.00;97218.34;5113888;28;20767;-37
2021/12/14 02:33:53;;;;;;;12.90;6.03;;;;;;;1.87;100.00;97214.59;5114352;28;20452;-37
2021/12/14 02:36:28;;;;;;;7.67;5.83;;;;;;;1.76;100.00;97223.66;5113840;28;20855;-37
2021/12/14 02:39:06;;;;;;;10.63;6.17;;;;;;;1.81;100.00;97231.00;5114067;28;20433;-37
2021/12/14 02:41:42;;;;;;;8.33;7.07;;;;;;;1.85;100.00;97224.44;5114049;28;20485;-37
2021/12/14 02:44:10;;;;;;;9.60;6.13;;;;;;;1.81;100.00;97223.97;5113776;28;20434;-37
2021/12/14 02:46:41;;;;;;;12.03;6.63;;;;;;;1.68;100.00;97210.59;5114533;28;20444;-37
2021/12/14 02:49:20;;;;;;;12.50;7.23;;;;;;;1.73;100.00;97221.38;5113651;28;20429;-37
2021/12/14 02:51:52;;;;;;;10.20;6.20;;;;;;;1.63;100.00;97220.75;5114018;28;20434;-37
2021/12/14 02:54:21;;;;;;;10.50;7.10;;;;;;;1.68;100.00;97225.47;5113687;28;20942;-37
2021/12/14 02:56:53;;;;;;;15.10;7.80;;;;;;;1.66;100.00;97222.22;5113639;28;20438;-37
2021/12/14 02:59:26;;;;;;;8.23;5.93;;;;;;;1.68;100.00;97222.84;5113948;28;20493;-37
2021/12/14 03:01:56;;;;;;;11.40;5.70;;;;;;;1.70;100.00;97221.72;5113522;28;20976;-37
2021/12/14 03:04:23;;;;;;;6.27;5.07;;;;;;;1.73;100.00;97228.41;5113466;28;20430;-37
2021/12/14 03:06:56;;;;;;;7.90;5.90;;;;;;;1.75;100.00;97231.69;5113841;28;20449;-37
2021/12/14 03:09:39;;;;;;;8.33;5.47;;;;;;;1.74;100.00;97224.81;5115924;28;20426;-37
2021/12/14 03:12:09;;;;;;;7.43;4.73;;;;;;;1.76;100.00;97228.06;5117496;28;20437;-37
2021/12/14 03:14:38;;;;;;;6.17;4.33;;;;;;;1.68;100.00;97210.59;5117490;28;20437;-37
2021/12/14 03:17:06;;;;;;;6.07;4.47;;;;;;;1.77;100.00;97224.47;5117634;28;20517;-37
2021/12/14 03:19:33;;;;;;;6.40;5.00;;;;;;;1.73;100.00;97224.00;5117280;28;20444;-37
2021/12/14 03:22:22;;;;;;;6.80;5.10;;;;;;;1.70;100.00;97220.88;5117166;28;20496;-37
2021/12/14 03:24:49;;;;;;;13.30;6.37;;;;;;;1.69;100.00;97216.66;5117260;28;20905;-37
2021/12/14 03:27:17;;;;;;;9.73;6.37;;;;;;;1.68;100.00;97225.47;5117185;28;20440;-37
2021/12/14 03:29:44;;;;;;;11.83;5.97;;;;;;;1.59;100.00;97219.47;5117141;28;20438;-37
2021/12/14 03:32:11;;;;;;;6.80;4.57;;;;;;;1.59;100.00;97224.69;5117190;28;20441;-37
2021/12/14 03:34:41;;;;;;;20.07;6.30;;;;;;;1.55;100.00;97226.00;5117062;28;20932;-37
2021/12/14 03:37:13;;;;;;;12.60;5.40;;;;;;;1.58;100.00;97226.50;5116931;28;20972;-37
2021/12/14 03:39:44;;;;;;;9.93;6.00;;;;;;;1.58;100.00;97223.06;5116976;28;20889;-37
2021/12/14 03:42:15;;;;;;;9.43;6.27;;;;;;;1.57;100.00;97229.28;5116832;28;20480;-37
2021/12/14 03:44:46;;;;;;;7.03;4.57;;;;;;;1.57;100.00;97234.50;5117264;28;20440;-37
2021/12/14 03:47:16;;;;;;;12.43;6.70;;;;;;;1.50;100.00;97228.31;5117102;28;20449;-37
2021/12/14 03:49:47;;;;;;;11.00;6.47;;;;;;;1.58;100.00;97236.97;5117110;28;20442;-37
2021/12/14 03:52:19;;;;;;;15.40;6.40;;;;;;;1.58;100.00;97236.16;5117045;28;20431;-37
2021/12/14 03:54:47;;;;;;;10.77;5.90;;;;;;;1.56;100.00;97238.94;5116698;28;20430;-37
2021/12/14 03:57:14;;;;;;;8.83;6.97;;;;;;;1.59;100.00;97243.84;5116586;28;20943;-37
2021/12/14 03:59:42;;;;;;;10.60;7.03;;;;;;;1.54;100.00;97235.66;5117391;28;20442;-37
2021/12/14 04:02:12;;;;;;;7.20;6.27;;;;;;;1.43;100.00;97238.66;5116401;28;20868;-37
2021/12/14 04:04:43;;;;;;;11.07;5.80;;;;;;;1.44;100.00;97237.66;5116844;28;20426;-37
2021/12/14 04:07:16;;;;;;;8.70;4.63;;;;;;;1.43;100.00;97238.66;5116496;28;20433;-37
2021/12/14 04:09:44;;;;;;;10.07;7.10;;;;;;;1.44;100.00;97240.28;5114187;28;20444;-38
2021/12/14 04:12:16;;;;;;;12.43;7.87;;;;;;;1.33;100.00;97220.50;5114493;28;20484;-38
2021/12/14 04:14:47;;;;;;;14.23;6.57;;;;;;;1.38;100.00;97248.81;5114558;28;20917;-38
2021/12/14 04:17:16;;;;;;;11.10;6.47;;;;;;;1.39;100.00;97247.81;5114574;28;20448;-38
2021/12/14 04:19:44;;;;;;;12.00;6.87;;;;;;;1.34;100.00;97245.72;5113959;28;20445;-37
2021/12/14 04:22:17;;;;;;;15.63;6.47;;;;;;;1.21;100.00;97251.44;5113548;28;20485;-38
2021/12/14 04:24:47;;;;;;;12.67;5.47;;;;;;;1.34;100.00;97255.38;5114053;28;20458;-38
2021/12/14 04:27:20;;;;;;;8.73;5.60;;;;;;;1.35;100.00;97251.75;5114257;28;20473;-38
2021/12/14 04:29:48;;;;;;;19.60;9.40;;;;;;;1.31;100.00;97261.75;5113958;28;20426;-38
2021/12/14 04:32:20;;;;;;;5.57;3.63;;;;;;;1.35;100.00;97262.22;5113832;28;20446;-38
2021/12/14 04:34:49;;;;;;;7.23;4.60;;;;;;;1.37;100.00;97255.00;5113548;28;20434;-38
2021/12/14 04:37:18;;;;;;;7.10;4.80;;;;;;;1.40;100.00;97262.56;5113695;28;20470;-38
2021/12/14 04:39:51;;;;;;;9.00;5.80;;;;;;;1.27;100.00;97260.44;5113680;28;20442;-37
2021/12/14 04:53:43;;;;;;;14.33;5.40;;;;;;;1.25;100.00;97270.25;5113575;28;20463;-38
2021/12/14 04:56:14;;;;;;;11.37;7.77;;;;;;;1.27;100.00;97280.53;5113407;28;20778;-38
2021/12/14 04:58:45;;;;;;;19.60;7.63;;;;;;;1.21;100.00;97277.59;5113406;28;21114;-38
2021/12/14 05:01:16;;;;;;;8.70;5.80;;;;;;;1.16;100.00;97259.00;5113012;28;20430;-38
2021/12/14 05:03:47;;;;;;;9.67;7.63;;;;;;;1.28;100.00;97290.03;5113626;28;20431;-37
2021/12/14 05:06:18;;;;;;;8.37;6.60;;;;;;;1.31;100.00;97277.44;5113452;28;20434;-38
2021/12/14 05:11:35;;;;;;;8.00;4.00;;;;;;;1.40;100.00;97291.34;5113344;28;20422;-38
2021/12/14 05:14:10;;;;;;;7.57;6.27;;;;;;;1.44;100.00;97292.59;5112744;28;20442;-38
2021/12/14 05:16:39;;;;;;;8.10;6.63;;;;;;;1.38;100.00;97288.06;5113040;28;20925;-38
2021/12/14 05:19:10;;;;;;;9.33;4.43;;;;;;;1.31;100.00;97295.75;5112955;28;20446;-37
2021/12/14 05:21:41;;;;;;;12.90;6.63;;;;;;;1.22;100.00;97274.00;5114829;28;20482;-37
2021/12/14 05:24:13;;;;;;;18.43;9.13;;;;;;;1.39;100.00;97287.06;5115772;28;20943;-37
2021/12/14 05:26:40;;;;;;;9.87;7.63;;;;;;;1.43;100.00;97291.81;5114826;28;20427;-38
2021/12/14 05:29:09;;;;;;;28.60;16.77;;;;;;;1.42;100.00;97305.06;5115100;28;20438;-37
2021/12/14 05:31:43;;;;;;;23.70;11.57;;;;;;;1.37;100.00;97308.16;5114021;28;20438;-37
2021/12/14 05:34:11;;;;;;;9.13;5.93;;;;;;;1.34;100.00;97305.06;5115116;28;20426;-37
2021/12/14 05:36:41;;;;;;;7.47;6.77;;;;;;;1.31;100.00;97308.00;5114461;28;20473;-38
2021/12/14 05:39:27;;;;;;;12.47;7.03;;;;;;;1.33;100.00;97312.09;5114681;28;20931;-37
2021/12/14 05:44:46;;;;;;;15.57;7.30;;;;;;;1.41;100.00;97319.13;5114724;28;20414;-37
2021/12/14 05:47:16;;;;;;;13.33;8.40;;;;;;;1.49;100.00;97326.16;5114458;28;20452;-38
2021/12/14 05:49:47;;;;;;;16.07;8.30;;;;;;;1.54;100.00;97316.81;5114769;28;20419;-37
2021/12/14 05:52:19;;;;;;;23.00;11.60;;;;;;;1.45;100.00;97304.72;5114693;28;20453;-37
2021/12/14 05:54:49;;;;;;;17.33;11.27;;;;;;;1.53;100.00;97323.03;5114430;28;20433;-37
2021/12/14 05:57:18;;;;;;;39.30;22.87;;;;;;;1.59;100.00;97327.63;5114628;28;20921;-37
2021/12/14 05:59:47;;;;;;;38.60;19.57;;;;;;;1.51;100.00;97319.75;5114392;28;20943;-37
2021/12/14 06:02:15;;;;;;;27.83;15.03;;;;;;;1.59;100.00;97338.09;5114124;28;20554;-37
2021/12/14 06:04:44;;;;;;;17.73;9.20;;;;;;;1.58;100.00;97336.44;5114197;28;20495;-37
2021/12/14 06:07:12;;;;;;;23.10;14.13;;;;;;;1.58;100.00;97344.28;5114430;28;20832;-37
2021/12/14 06:09:44;;;;;;;43.43;18.40;;;;;;;1.56;100.00;97348.88;5114446;28;20442;-37
2021/12/14 06:12:16;;;;;;;39.80;20.77;;;;;;;1.57;100.00;97345.28;5114136;28;20483;-37
2021/12/14 06:14:51;;;;;;;36.67;21.60;;;;;;;1.56;100.00;97333.16;5114079;28;20924;-37
2021/12/14 06:17:23;;;;;;;16.07;11.70;;;;;;;1.54;100.00;97342.16;5114311;28;20434;-37
2021/12/14 06:19:54;;;;;;;16.70;10.60;;;;;;;1.50;100.00;97341.66;5114308;28;20762;-37
2021/12/14 06:22:22;;;;;;;13.73;9.77;;;;;;;1.52;100.00;97347.56;5114338;28;20488;-36
2021/12/14 06:24:54;;;;;;;15.50;10.13;;;;;;;1.58;100.00;97349.53;5113908;28;20453;-37
2021/12/14 06:27:24;;;;;;;12.40;8.43;;;;;;;1.64;100.00;97340.19;5113943;28;20910;-37
2021/12/14 06:29:55;;;;;;;13.80;9.20;;;;;;;1.67;100.00;97352.13;5114157;28;20445;-37
2021/12/14 06:32:25;;;;;;;12.83;10.20;;;;;;;1.70;100.00;97344.78;5114257;28;20452;-37
2021/12/14 06:34:55;;;;;;;11.83;9.33;;;;;;;1.68;100.00;97341.50;5113738;28;20438;-37
2021/12/14 06:40:45;;;;;;;16.87;12.60;;;;;;;1.71;100.00;97361.28;5092947;28;20896;-37
2021/12/14 06:43:16;;;;;;;18.50;10.10;;;;;;;1.63;100.00;97359.47;5115353;28;21007;-37
2021/12/14 06:45:46;;;;;;;16.13;10.40;;;;;;;1.56;100.00;97353.28;5117990;28;20430;-37
2021/12/14 06:48:20;;;;;;;11.63;8.73;;;;;;;1.63;100.00;97364.72;5117962;28;20446;-37
2021/12/14 06:50:50;;;;;;;12.83;9.27;;;;;;;1.64;100.00;97366.38;5117876;28;20521;-36
2021/12/14 06:53:20;;;;;;;20.70;15.27;;;;;;;1.59;100.00;97368.66;5118228;28;20438;-36
2021/12/14 06:55:50;;;;;;;60.20;22.40;;;;;;;1.58;100.00;97373.06;5117781;28;20479;-36
2021/12/14 06:58:22;;;;;;;40.87;20.57;;;;;;;1.54;100.00;97379.63;5117811;28;20436;-36
2021/12/14 07:00:52;;;;;;;32.43;15.23;;;;;;;1.52;100.00;97367.69;5118019;28;20431;-36
2021/12/14 07:03:20;;;;;;;22.03;10.40;;;;;;;1.56;100.00;97388.13;5117600;28;20478;-36
2021/12/14 07:05:50;;;;;;;13.37;8.03;;;;;;;1.52;100.00;97394.66;5117714;28;20442;-36
2021/12/14 07:08:24;;;;;;;39.40;17.80;;;;;;;1.47;100.00;97386.50;5118212;28;20838;-37
2021/12/14 07:10:52;;;;;;;31.47;13.83;;;;;;;1.48;100.00;97388.13;5117553;28;20498;-36
2021/12/14 07:13:25;;;;;;;12.60;9.50;;;;;;;1.50;100.00;97391.41;5118374;28;20449;-36
2021/12/14 07:15:52;;;;;;;22.37;12.70;;;;;;;1.56;100.00;97393.34;5117484;28;20475;-36
2021/12/14 07:18:25;;;;;;;26.03;13.47;;;;;;;1.62;100.00;97395.31;5117291;28;20449;-36
2021/12/14 07:20:53;;;;;;;26.50;16.03;;;;;;;1.62;100.00;97403.19;5118203;28;20517;-36
2021/12/14 07:23:26;;;;;;;18.83;10.40;;;;;;;1.63;100.00;97396.13;5117204;28;21006;-36
2021/12/14 07:26:00;;;;;;;27.40;14.40;;;;;;;1.66;100.00;97395.81;5117336;28;20513;-36
2021/12/14 07:28:32;;;;;;;24.53;15.10;;;;;;;1.68;100.00;97387.78;5117240;28;20816;-37
2021/12/14 07:31:02;;;;;;;10.87;7.00;;;;;;;1.76;100.00;97395.63;5117197;28;20438;-36
2021/12/14 07:33:32;;;;;;;11.87;7.23;;;;;;;1.82;100.00;97394.97;5117022;28;20439;-36
2021/12/14 07:36:01;;;;;;;28.07;11.83;;;;;;;1.88;100.00;97398.75;5117078;28;20440;-36
2021/12/14 07:38:40;;;;;;;33.30;15.10;;;;;;;1.81;100.00;97396.78;5117308;28;20449;-36
2021/12/14 07:41:19;;;;;;;23.10;11.23;;;;;;;1.80;100.00;97404.78;5117354;28;20501;-36
2021/12/14 07:43:52;;;;;;;33.67;14.50;;;;;;;1.79;100.00;97401.38;5117184;28;20473;-36
2021/12/14 07:46:24;;;;;;;44.87;19.13;;;;;;;1.75;100.00;97405.28;5116957;28;20488;-36
2021/12/14 07:48:55;;;;;;;54.50;27.47;;;;;;;1.77;100.00;97413.00;5116798;28;20422;-36
2021/12/14 07:51:24;;;;;;;33.80;19.00;;;;;;;1.70;100.00;97407.59;5116783;28;20522;-37
2021/12/14 07:53:53;;;;;;;21.83;11.40;;;;;;;1.63;100.00;97422.31;5117022;28;20438;-36
2021/12/14 07:56:38;;;;;;;17.70;11.37;;;;;;;1.62;100.00;97421.50;5115965;28;20450;-36
2021/12/14 07:59:17;;;;;;;50.90;27.20;;;;;;;1.70;100.00;97422.47;5116680;28;20490;-36
2021/12/14 08:01:45;;;;;;;39.20;23.57;;;;;;;1.77;100.00;97418.22;5116655;28;20426;-36
2021/12/14 08:04:12;;;;;;;35.23;19.23;;;;;;;1.87;100.00;97426.72;5116413;28;20485;-36
2021/12/14 08:06:50;;;;;;;33.87;16.60;;;;;;;1.95;100.00;97421.47;5116419;28;20441;-36
2021/12/14 08:09:33;;;;;;;40.73;21.47;;;;;;;2.03;100.00;97431.13;5116724;28;20430;-36
2021/12/14 08:12:01;;;;;;;45.80;25.40;;;;;;;2.10;100.00;97423.41;5116407;28;20430;-36
2021/12/14 08:14:33;;;;;;;22.33;17.63;;;;;;;2.12;100.00;97434.53;5116625;28;20434;-36
2021/12/14 08:17:05;;;;;;;14.80;12.53;;;;;;;2.16;100.00;97438.47;5116628;28;20423;-36
2021/12/14 08:19:37;;;;;;;24.90;13.17;;;;;;;2.20;100.00;97434.53;5116545;28;20434;-36
2021/12/14 08:22:12;;;;;;;44.17;31.70;;;;;;;2.20;100.00;97440.56;5116174;28;20422;-36
2021/12/14 08:24:48;;;;;;;26.20;15.67;;;;;;;2.20;100.00;97440.56;5116508;28;20426;-36
2021/12/14 08:27:19;;;;;;;25.10;16.10;;;;;;;2.22;100.00;97448.28;5116479;28;20426;-36
2021/12/14 08:29:50;;;;;;;19.97;13.07;;;;;;;2.20;100.00;97445.81;5116001;28;20427;-36
2021/12/14 08:32:21;;;;;;;12.30;8.90;;;;;;;2.19;100.00;97446.78;5116317;28;20431;-36
2021/12/14 08:34:50;;;;;;;10.63;9.60;;;;;;;2.24;100.00;97441.88;5115970;28;20426;-36
2021/12/14 08:37:21;;;;;;;27.47;17.60;;;;;;;2.24;100.00;97435.84;5115690;28;20470;-36
2021/12/14 08:39:50;;;;;;;26.43;14.43;;;;;;;2.29;100.00;97444.00;5115842;28;20796;-36
2021/12/14 08:42:24;;;;;;;15.43;11.47;;;;;;;2.31;100.00;97444.66;5116039;28;20863;-36
2021/12/14 08:44:58;;;;;;;17.60;14.13;;;;;;;2.31;100.00;97439.41;5116089;28;20433;-36
2021/12/14 08:47:30;;;;;;;19.60;12.87;;;;;;;2.32;100.00;97438.41;5115736;28;20458;-36
2021/12/14 08:50:00;;;;;;;11.47;9.47;;;;;;;2.34;100.00;97433.81;5115688;28;20434;-36
2021/12/14 08:52:29;;;;;;;12.53;6.43;;;;;;;2.28;100.00;97426.66;5115695;28;20866;-36
2021/12/14 08:54:57;;;;;;;6.50;5.90;;;;;;;2.32;100.00;97427.91;5115494;28;20466;-36
2021/12/14 08:57:28;;;;;;;12.17;9.03;;;;;;;2.36;100.00;97428.41;5115793;28;20438;-36
2021/12/14 09:00:01;;;;;;;16.13;9.87;;;;;;;2.37;100.00;97436.13;5115453;28;20472;-36
2021/12/14 09:02:30;;;;;;;17.77;11.60;;;;;;;2.38;100.00;97415.97;5115417;28;20437;-36
2021/12/14 09:05:00;;;;;;;29.67;14.50;;;;;;;2.40;100.00;97409.56;5115703;28;20465;-36
2021/12/14 09:07:30;;;;;;;54.00;33.07;;;;;;;2.42;100.00;97415.44;5114207;28;20925;-36
2021/12/14 09:09:59;;;;;;;40.23;25.43;;;;;;;2.41;100.00;97390.25;5115868;28;20437;-36
2021/12/14 09:12:31;;;;;;;24.47;15.37;;;;;;;2.46;100.00;97394.97;5115175;28;20438;-36
2021/12/14 09:15:07;;;;;;;13.40;11.37;;;;;;;2.31;100.00;97391.44;5115232;28;20430;-36
2021/12/14 09:17:35;;;;;;;18.57;12.53;;;;;;;2.21;100.00;97383.75;5115480;28;20426;-35
2021/12/14 09:20:07;;;;;;;23.13;13.23;;;;;;;2.32;100.00;97390.44;5115059;28;20442;-35
2021/12/14 09:22:41;;;;;;;76.53;31.03;;;;;;;2.37;100.00;97388.13;5115199;28;20427;-35
2021/12/14 09:25:11;;;;;;;44.53;23.73;;;;;;;2.43;100.00;97383.03;5115321;28;20426;-35
2021/12/14 09:27:39;;;;;;;25.33;13.80;;;;;;;2.51;100.00;97390.03;5114932;28;20457;-35
2021/12/14 09:30:13;;;;;;;32.87;19.87;;;;;;;2.55;100.00;97385.25;5114778;28;20449;-36
2021/12/14 09:32:41;;;;;;;95.90;40.43;;;;;;;2.61;100.00;97384.59;5114751;28;20423;-35
2021/12/14 09:35:16;;;;;;;61.67;29.97;;;;;;;2.64;100.00;97381.59;5114694;28;20491;-36
2021/12/14 09:37:45;;;;;;;61.63;27.67;;;;;;;2.57;100.00;97362.31;5114490;28;20992;-36
2021/12/14 09:40:19;;;;;;;49.73;28.40;;;;;;;2.64;100.00;97382.41;5114655;28;20491;-36
2021/12/14 09:42:47;;;;;;;36.63;23.40;;;;;;;2.64;100.00;97376.38;5114537;28;20426;-36
2021/12/14 09:45:19;;;;;;;67.07;27.20;;;;;;;2.63;100.00;97387.84;5114829;28;20808;-36
2021/12/14 09:47:46;;;;;;;54.07;25.70;;;;;;;2.64;100.00;97377.16;5114503;28;20812;-36
2021/12/14 09:50:17;;;;;;;35.53;21.80;;;;;;;2.66;100.00;97382.25;5114798;28;20552;-36
2021/12/14 09:52:47;;;;;;;26.03;19.73;;;;;;;2.68;100.00;97372.41;5114501;28;20426;-35
2021/12/14 09:55:18;;;;;;;28.13;17.00;;;;;;;2.75;100.00;97381.22;5114449;28;20516;-36
2021/12/14 09:57:48;;;;;;;47.37;23.30;;;;;;;2.65;100.00;97359.66;5114704;28;20426;-35
2021/12/14 10:00:21;;;;;;;46.50;27.00;;;;;;;2.81;100.00;97377.09;5114172;28;20799;-35
2021/12/14 10:02:51;;;;;;;33.13;19.90;;;;;;;2.81;100.00;97380.53;5114570;28;20780;-36
2021/12/14 10:05:21;;;;;;;38.17;21.27;;;;;;;2.83;100.00;97378.56;5114294;28;20936;-36
2021/12/14 10:07:49;;;;;;;36.70;22.73;;;;;;;2.85;100.00;97373.94;5114213;28;20449;-35
2021/12/14 10:10:19;;;;;;;33.63;19.27;;;;;;;2.89;100.00;97373.63;5114412;28;20450;-35
2021/12/14 10:12:50;;;;;;;25.37;17.13;;;;;;;2.91;100.00;97374.25;5115242;28;20434;-35
2021/12/14 10:15:26;;;;;;;47.13;32.80;;;;;;;2.85;100.00;97355.59;5114288;28;20445;-35
2021/12/14 10:17:57;;;;;;;24.03;16.67;;;;;;;2.79;100.00;97361.53;5113707;28;20793;-35
2021/12/14 10:20:31;;;;;;;29.03;16.97;;;;;;;2.65;100.00;97375.38;5113978;28;20430;-35
2021/12/14 10:23:00;;;;;;;23.73;15.60;;;;;;;2.59;100.00;97366.38;5113918;28;20430;-35
2021/12/14 10:25:29;;;;;;;21.90;13.83;;;;;;;2.54;100.00;97366.09;5113855;28;20438;-36
2021/12/14 10:27:57;;;;;;;20.30;13.37;;;;;;;2.47;100.00;97362.50;5113957;28;20434;-36
2021/12/14 10:30:30;;;;;;;34.80;17.87;;;;;;;2.40;100.00;97361.56;5113848;28;20453;-35
2021/12/14 10:33:00;;;;;;;17.07;11.70;;;;;;;2.36;100.00;97366.31;5113977;28;20441;-35
2021/12/14 10:35:34;;;;;;;17.23;9.90;;;;;;;2.36;100.00;97366.31;5113774;28;20811;-35
2021/12/14 10:38:14;;;;;;;11.67;8.93;;;;;;;2.30;100.00;97361.75;5113761;28;20485;-35
2021/12/14 10:43:31;;;;;;;35.70;19.80;;;;;;;2.26;100.00;97363.13;5113894;28;20464;-35
2021/12/14 10:46:06;;;;;;;27.10;12.97;;;;;;;2.26;100.00;97365.72;5114020;28;20518;-36
2021/12/14 10:48:39;;;;;;;18.30;8.53;;;;;;;2.32;100.00;97367.66;5114112;28;20429;-36
2021/12/14 10:51:10;;;;;;;17.13;10.70;;;;;;;2.38;100.00;97368.78;5113777;28;20897;-36
2021/12/14 10:53:42;;;;;;;20.37;11.53;;;;;;;2.43;100.00;97363.84;5114110;28;20454;-36
2021/12/14 10:56:14;;;;;;;17.90;10.33;;;;;;;2.44;100.00;97363.69;5113630;28;20437;-35
2021/12/14 10:58:44;;;;;;;27.10;15.17;;;;;;;2.49;100.00;97359.72;5113711;28;20426;-36
2021/12/14 11:01:16;;;;;;;24.93;14.10;;;;;;;2.55;100.00;97353.81;5113649;28;20931;-36
2021/12/14 11:03:47;;;;;;;36.07;19.23;;;;;;;2.52;100.00;97348.88;5113564;28;20474;-35
2021/12/14 11:06:21;;;;;;;42.57;23.83;;;;;;;2.59;100.00;97349.84;5113568;28;20483;-36
2021/12/14 11:08:59;;;;;;;30.93;18.27;;;;;;;2.62;100.00;97349.50;5113928;28;20483;-35
2021/12/14 11:11:33;;;;;;;20.47;11.93;;;;;;;2.62;100.00;97344.25;5113576;28;20414;-36
2021/12/14 11:14:03;;;;;;;20.77;11.67;;;;;;;2.59;100.00;97347.22;5113592;28;20431;-35
2021/12/14 11:18:08;;;;;;;21.57;12.77;;;;;;;2.60;100.00;97346.22;5113495;28;20808;-35
2021/12/14 11:19:33;;;;;;;22.20;10.60;;;;;;;2.59;100.00;97349.84;5113327;28;20442;-36
2021/12/14 11:22:09;;;;;;;22.77;13.80;;;;;;;2.62;100.00;97339.00;5113472;28;20422;-35
2021/12/14 11:24:38;;;;;;;32.50;13.40;;;;;;;2.51;100.00;97336.78;5113329;28;20473;-35
2021/12/14 11:27:13;;;;;;;14.60;9.60;;;;;;;2.50;100.00;97340.41;5113675;28;20442;-36
2021/12/14 11:29:40;;;;;;;11.67;8.47;;;;;;;2.36;100.00;97349.78;5113985;28;20767;-35
2021/12/14 11:32:18;;;;;;;17.93;8.33;;;;;;;2.25;100.00;97343.13;5117479;28;20448;-36
2021/12/14 11:34:46;;;;;;;9.30;8.23;;;;;;;2.14;100.00;97340.88;5117126;28;20441;-36
2021/12/14 11:37:16;;;;;;;8.13;5.80;;;;;;;2.20;100.00;97341.00;5116832;28;20568;-36
2021/12/14 11:39:48;;;;;;;12.40;8.80;;;;;;;2.18;100.00;97344.78;5117269;28;20621;-36
2021/12/14 11:42:23;;;;;;;9.53;7.60;;;;;;;2.22;100.00;97346.09;5116960;28;20818;-36
2021/12/14 11:44:54;;;;;;;9.97;6.13;;;;;;;2.21;100.00;97344.44;5116868;28;20839;-36
2021/12/14 11:47:46;;;;;;;13.03;7.60;;;;;;;2.20;100.00;97345.44;5116907;28;20426;-35
2021/12/14 11:50:20;;;;;;;26.03;13.20;;;;;;;2.15;100.00;97321.53;5116982;28;20439;-36
2021/12/14 11:52:51;;;;;;;11.67;9.40;;;;;;;2.23;100.00;97318.88;5117126;28;20434;-36
2021/12/14 11:55:28;;;;;;;11.70;8.77;;;;;;;2.35;100.00;97346.38;5117092;28;20426;-36
2021/12/14 11:58:08;;;;;;;12.70;7.30;;;;;;;2.41;100.00;97340.44;5116619;28;20839;-36
2021/12/14 12:00:38;;;;;;;14.10;10.57;;;;;;;2.34;100.00;97336.03;5116923;28;20430;-36
2021/12/14 12:03:31;;;;;;;5.27;4.80;;;;;;;2.42;100.00;97338.63;5116814;28;20453;-36
2021/12/14 12:06:07;;;;;;;8.33;6.57;;;;;;;2.46;100.00;97345.16;5116621;28;20431;-36
2021/12/14 12:11:22;;;;;;;4.77;4.10;;;;;;;2.46;100.00;97334.69;5116944;28;20410;-36
2021/12/14 12:13:49;;;;;;;4.23;3.60;;;;;;;2.53;100.00;97347.91;5116388;28;20445;-36